Aeroporto :







RITROVATECI SU...

 
LOGIN :

Iscrizione | Disclaimer

   EN    FR    IT 

 









Sommario :    VFR   VFR Marginale   IFR   IFR Intensivo   IFR Molto Intensivo
Visibilità : 
Base nubi : 
>= 8 km
>= 3000ft
5 / 8 km
1000 / 3000 ft
1500m / 5 km
500 / 1000 ft
800 / 1500m
200 / 500 ft
< 800m
< 200 ft
Simboli :   Temporali  Nebbia  Neve Forte  Precipitazioni Forti  Vento > 20 kt






- Altitudine del aeroporto : 234 ft
- Codice IATA : PBG


KPBG - Plattsburgh International

ULTIMO METAR :
  • 280753Z AUTO 00000KT 10SM CLR 18/16 A3006 RMK AO2 SLP179 T01830156

METARs OBSOLETI :
  • 280653Z AUTO 00000KT 10SM CLR 19/15 A3006 RMK AO2 SLP179 T01940150
  • 280553Z AUTO 00000KT 10SM CLR 20/16 A3006 RMK AO2 SLP177 T02000156 10278 20194 51007

TAF KPBG
Valido dal 28 a 06 ore il 29 a 06 ore UTC


280520Z 2806/2906 16007KT P6SM FEW050 BKN200
FM281300 16010KT P6SM SCT050 BKN150
FM282200 17012KT P6SM VCSH BKN050
FM290300 17014KT P6SM VCSH BKN030
FIR KZBW / America del Nord



MetMap, La meteo Aeronautica in un colpo d'occhio ! - Copyright ORBIFLY Dicembre 2007 - Disclaimer

ORBIFLY MET'MAP TEAM :

Programmazione e sviluppo : Alexandra Zaïnal
Concezione : Baudouin d'Aumeries
Aiuto per la programmazione : Marc-Olivier Méhu
Supporto tecnico e logistico : Manuel Goepfert
Aiuto per la traduzione : Arnaldo La Scala

Contatto : metmap@orbifly.com




FONTI E CREDITI :

   NOAA